Time;durP1;ratioP1;P1;durP2;ratioP2;P2;SDS_P1;SDS_P2;PMS_P1;PMS_P2;Temp;Humidity;BMP_temperature;BMP_pressure;BME280_temperature;BME280_humidity;BME280_pressure;Samples;Min_cycle;Max_cycle;Signal;HPM_P1;HPM_P2
2022/12/08 00:01:26;;;;;;;25.60;15.38;;;3.70;99.90;;;-144.05;78.82;125687.94;4997361;28;20026;-84
2022/12/08 00:03:53;;;;;;;28.58;17.15;;;3.70;99.90;;;-144.05;79.05;125687.94;4998450;28;20416;-84
2022/12/08 00:09:44;;;;;;;33.90;17.20;;;3.70;99.90;;;-144.05;78.88;125687.94;4977100;28;20038;-85
2022/12/08 00:12:15;;;;;;;31.83;18.00;;;3.60;99.90;;;-144.05;79.17;125687.94;4976856;28;20094;-84
2022/12/08 00:14:46;;;;;;;31.60;19.20;;;3.70;99.90;;;-144.05;79.05;125687.94;4987517;28;20070;-84
2022/12/08 00:17:15;;;;;;;31.63;19.80;;;3.70;99.90;;;-144.05;79.42;125687.94;4998930;28;20065;-84
2022/12/08 00:19:43;;;;;;;38.95;20.27;;;3.70;99.90;;;-144.05;79.69;125687.94;4996494;28;20367;-84
2022/12/08 00:22:13;;;;;;;33.90;21.52;;;3.70;99.90;;;-144.05;79.83;125687.94;4998527;28;20033;-84
2022/12/08 00:24:43;;;;;;;40.15;22.70;;;3.70;99.90;;;-144.05;79.49;125687.94;4998844;28;20214;-82
2022/12/08 00:27:14;;;;;;;34.90;21.60;;;3.70;99.90;;;-144.05;78.71;125687.94;4998448;28;20314;-85
2022/12/08 00:29:44;;;;;;;40.40;23.23;;;3.80;99.90;;;-144.05;79.22;125687.94;4996693;28;20400;-84
2022/12/08 00:32:10;;;;;;;35.95;22.50;;;3.80;99.90;;;-144.05;78.83;125687.94;4998488;28;20026;-83
2022/12/08 00:34:36;;;;;;;37.00;23.65;;;3.80;99.90;;;-144.05;79.00;125687.94;4997759;28;20053;-83
2022/12/08 00:37:01;;;;;;;36.50;23.33;;;3.80;99.90;;;-144.05;78.97;125687.94;4996982;28;20026;-86
2022/12/08 00:39:27;;;;;;;34.13;22.35;;;3.80;99.90;;;-144.05;78.92;125687.94;4997319;28;20045;-85
2022/12/08 00:42:11;;;;;;;37.58;23.38;;;3.80;99.90;;;-144.05;78.73;125687.94;4998786;28;20034;-85
2022/12/08 00:44:39;;;;;;;38.58;23.80;;;3.80;99.90;;;-144.05;78.68;125687.94;4997489;28;20030;-85
2022/12/08 00:47:05;;;;;;;46.10;23.08;;;3.80;99.90;;;-144.05;78.55;125687.94;5013933;28;20088;-84
2022/12/08 00:49:31;;;;;;;36.22;22.88;;;3.90;99.90;;;-144.05;78.63;125687.94;4998432;28;20030;-85
2022/12/08 00:51:57;;;;;;;49.65;23.88;;;3.80;99.90;;;-144.05;79.20;125687.94;4999453;28;20494;-84
2022/12/08 00:54:23;;;;;;;44.55;25.45;;;3.80;99.90;;;-144.05;79.21;125687.94;4998526;28;20034;-83
2022/12/08 00:56:50;;;;;;;42.17;23.95;;;3.80;99.90;;;-144.05;78.43;125687.94;4998907;28;20030;-84
2022/12/08 00:59:16;;;;;;;39.20;24.67;;;3.80;99.90;;;-144.05;78.71;125687.94;5016821;28;20120;-84
2022/12/08 01:01:47;;;;;;;44.42;25.27;;;3.80;99.90;;;-144.05;78.94;125687.94;5005096;28;20509;-83
2022/12/08 01:04:18;;;;;;;42.58;25.05;;;3.80;99.90;;;-144.05;78.84;125687.94;5004438;28;20093;-84
2022/12/08 01:06:46;;;;;;;49.75;25.98;;;3.80;99.90;;;-144.05;78.63;125687.94;5001830;28;20042;-82
2022/12/08 01:09:14;;;;;;;40.72;24.77;;;3.80;99.90;;;-144.05;78.74;125687.94;4997078;28;20142;-83
2022/12/08 01:11:40;;;;;;;42.47;24.70;;;3.80;99.90;;;-144.05;79.09;125687.94;4997324;28;20500;-83
2022/12/08 01:14:06;;;;;;;43.63;25.15;;;3.80;99.90;;;-144.05;78.59;125687.94;5012862;28;20137;-85
2022/12/08 01:16:35;;;;;;;44.67;23.83;;;3.90;99.90;;;-144.05;78.56;125687.94;4997730;28;20092;-85
2022/12/08 01:19:03;;;;;;;41.72;24.25;;;3.90;99.90;;;-144.05;78.45;125687.94;4997272;28;20371;-85
2022/12/08 01:21:29;;;;;;;37.50;22.30;;;3.80;99.90;;;-144.05;78.15;125687.94;4998277;28;20026;-83
2022/12/08 01:23:59;;;;;;;41.22;23.35;;;3.80;99.90;;;-144.05;78.36;125687.94;4996523;28;20110;-85
2022/12/08 01:26:26;;;;;;;41.70;23.60;;;3.80;99.90;;;-144.05;77.97;125687.94;4997977;28;20027;-85
2022/12/08 01:28:52;;;;;;;35.25;22.77;;;3.80;99.90;;;-144.05;78.00;125687.94;4998109;28;20030;-86
2022/12/08 01:31:21;;;;;;;34.63;21.83;;;3.80;99.90;;;-144.05;77.95;125687.94;4999184;28;20124;-86
2022/12/08 01:33:48;;;;;;;40.92;23.10;;;3.80;99.90;;;-144.05;77.95;125687.94;4999876;28;20046;-84
2022/12/08 01:36:27;;;;;;;38.28;22.13;;;3.70;99.90;;;-144.05;78.19;125687.94;4999087;28;20050;-84
2022/12/08 01:38:58;;;;;;;38.28;22.65;;;3.70;99.90;;;-144.05;77.88;125687.94;4999005;28;20467;-85
2022/12/08 01:41:30;;;;;;;39.67;23.63;;;3.60;99.90;;;-144.05;78.03;125687.94;5000169;28;20022;-86
2022/12/08 01:44:22;;;;;;;37.40;22.77;;;3.60;99.90;;;-144.05;78.01;125687.94;5001942;28;20394;-84
2022/12/08 01:46:51;;;;;;;38.78;22.30;;;3.60;99.90;;;-144.05;77.81;125687.94;5002638;28;20029;-84
2022/12/08 01:49:29;;;;;;;38.70;22.77;;;3.60;99.90;;;-144.05;77.76;125687.94;5029818;28;20038;-83
2022/12/08 01:52:13;;;;;;;40.55;23.20;;;3.50;99.90;;;-144.05;78.30;125687.94;5007042;28;20053;-83
2022/12/08 01:54:57;;;;;;;38.28;22.25;;;3.50;99.90;;;-144.05;78.28;125687.94;4992566;28;20038;-83
2022/12/08 01:57:42;;;;;;;35.60;22.55;;;3.50;99.90;;;-144.05;78.90;125687.94;4993259;28;20026;-84
2022/12/08 02:00:14;;;;;;;36.75;22.75;;;3.50;99.90;;;-144.05;78.55;125687.94;4995145;28;20038;-85
2022/12/08 02:03:05;;;;;;;31.48;20.48;;;3.50;99.90;;;-144.05;78.67;125687.94;4999544;28;20434;-85
2022/12/08 02:05:39;;;;;;;34.90;21.70;;;3.50;99.90;;;-144.05;79.01;125687.94;5000015;28;20022;-86
2022/12/08 02:08:12;;;;;;;37.47;23.60;;;3.40;99.90;;;-144.05;79.28;125687.94;5000435;28;20027;-85
2022/12/08 02:10:43;;;;;;;34.75;21.63;;;3.50;99.90;;;-144.05;78.76;125687.94;5000946;28;20030;-85
2022/12/08 02:13:16;;;;;;;37.85;22.85;;;3.60;99.90;;;-144.05;78.51;125687.94;4999284;28;20035;-84
2022/12/08 02:16:56;;;;;;;39.25;21.95;;;3.50;99.90;;;-144.05;78.16;125687.94;5000559;28;20062;-85
2022/12/08 02:20:19;;;;;;;34.22;21.42;;;3.50;99.90;;;-144.05;78.50;125687.94;4966709;28;20134;-85
2022/12/08 02:23:32;;;;;;;38.28;22.85;;;3.50;99.90;;;-144.05;78.61;125687.94;4976206;28;20046;-83
2022/12/08 02:26:59;;;;;;;34.55;22.33;;;3.40;99.90;;;-144.05;78.78;125687.94;4979437;28;20124;-83
2022/12/08 02:30:04;;;;;;;39.50;23.88;;;3.50;99.90;;;-144.05;79.12;125687.94;4994191;28;20082;-83
2022/12/08 02:33:30;;;;;;;39.70;23.80;;;3.50;99.90;;;-144.05;78.97;125687.94;4993311;28;20026;-85
2022/12/08 02:36:22;;;;;;;38.67;23.60;;;3.50;99.90;;;-144.05;78.51;125687.94;4953721;29;20070;-84
2022/12/08 02:39:08;;;;;;;40.55;24.08;;;3.50;99.90;;;-144.05;78.63;125687.94;4991595;28;20070;-84
2022/12/08 02:41:56;;;;;;;44.92;24.48;;;3.50;99.90;;;-144.05;78.75;125687.94;4995137;28;20031;-83
2022/12/08 02:44:44;;;;;;;37.03;23.05;;;3.50;99.90;;;-144.05;78.80;125687.94;5010151;28;20022;-82
2022/12/08 02:47:20;;;;;;;43.10;25.15;;;3.50;99.90;;;-144.05;78.78;125687.94;4995065;28;20467;-83
2022/12/08 02:49:46;;;;;;;44.28;24.75;;;3.50;99.90;;;-144.05;78.23;125687.94;4993075;28;20030;-83
2022/12/08 02:52:12;;;;;;;37.75;23.55;;;3.60;99.90;;;-144.05;78.46;125687.94;4997153;28;20030;-84
2022/12/08 02:55:04;;;;;;;49.70;25.98;;;3.60;99.90;;;-144.05;78.46;125687.94;4998452;28;20038;-85
2022/12/08 02:58:01;;;;;;;44.35;25.02;;;3.60;99.90;;;-144.05;79.11;125687.94;4998859;28;20117;-82
2022/12/08 03:00:56;;;;;;;46.20;24.45;;;3.60;99.90;;;-144.05;79.59;125687.94;4997388;28;20427;-84
2022/12/08 03:03:52;;;;;;;41.25;25.13;;;3.60;99.90;;;-144.05;79.55;125687.94;4998753;28;20474;-83
2022/12/08 03:06:29;;;;;;;41.05;25.27;;;3.60;99.90;;;-144.05;79.40;125687.94;5014905;28;20018;-84
2022/12/08 03:09:53;;;;;;;43.63;25.92;;;3.60;99.90;;;-144.05;79.26;125687.94;4997930;28;20030;-83
2022/12/08 03:12:36;;;;;;;44.45;25.08;;;3.60;99.90;;;-144.05;79.40;125687.94;4998414;28;20026;-84
2022/12/08 03:15:14;;;;;;;42.58;25.75;;;3.60;99.90;;;-144.05;79.75;125687.94;5000259;28;20116;-83
2022/12/08 03:17:50;;;;;;;37.47;24.33;;;3.70;99.90;;;-144.05;79.22;125687.94;4998758;28;20034;-83
2022/12/08 03:20:22;;;;;;;;;;;3.70;99.90;;;-144.05;79.10;125687.94;4999630;28;20475;-84
2022/12/08 03:22:54;;;;;;;46.47;25.42;;;3.70;99.90;;;-144.05;78.92;125687.94;5000805;28;19914;-83
2022/12/08 03:25:29;;;;;;;45.35;24.90;;;3.70;99.90;;;-144.05;78.85;125687.94;4999486;28;20469;-83
2022/12/08 03:27:56;;;;;;;43.47;25.13;;;3.80;99.90;;;-144.05;79.15;125687.94;5000420;28;20057;-85
2022/12/08 03:30:22;;;;;;;39.45;23.48;;;3.80;99.90;;;-144.05;79.25;125687.94;5000502;28;20050;-82
2022/12/08 03:33:02;;;;;;;40.42;23.17;;;3.80;99.90;;;-144.05;79.35;125687.94;5015533;28;20026;-84
2022/12/08 03:35:36;;;;;;;41.97;24.23;;;3.80;99.90;;;-144.05;79.03;125687.94;5015833;28;20102;-83
2022/12/08 03:38:21;;;;;;;45.55;23.90;;;3.80;99.90;;;-144.05;78.73;125687.94;4998541;28;20058;-85
2022/12/08 03:41:17;;;;;;;43.10;24.25;;;3.80;99.90;;;-144.05;78.50;125687.94;5001110;28;20026;-83
2022/12/08 03:43:33;;;;;;;39.78;22.80;;;3.80;99.90;;;-144.05;78.82;125687.94;5001144;28;20073;-84
2022/12/08 03:45:59;;;;;;;42.83;24.02;;;3.80;99.90;;;-144.05;78.55;125687.94;5001824;28;20030;-84
2022/12/08 03:48:25;;;;;;;43.70;24.27;;;3.80;99.90;;;-144.05;78.83;125687.94;5000047;28;20030;-85
2022/12/08 03:50:51;;;;;;;46.72;24.60;;;3.80;99.90;;;-144.05;78.94;125687.94;5010561;28;20042;-83
2022/12/08 03:53:16;;;;;;;40.70;23.73;;;3.80;99.90;;;-144.05;78.88;125687.94;5012263;28;20534;-86
2022/12/08 03:55:42;;;;;;;40.28;22.27;;;3.80;99.90;;;-144.05;79.33;125687.94;4996259;28;20034;-84
2022/12/08 03:58:08;;;;;;;43.40;23.70;;;3.80;99.90;;;-144.05;78.88;125687.94;4998237;28;20438;-84
2022/12/08 04:00:34;;;;;;;44.35;23.17;;;3.80;99.90;;;-144.05;78.98;125687.94;4998403;28;20545;-84
2022/12/08 04:03:00;;;;;;;43.53;23.52;;;3.80;99.90;;;-144.05;79.48;125687.94;4997475;28;20033;-84
2022/12/08 04:05:25;;;;;;;40.70;22.42;;;3.90;99.90;;;-144.05;79.28;125687.94;4998142;28;20053;-84
2022/12/08 04:07:56;;;;;;;42.33;23.90;;;3.90;99.90;;;-144.05;79.52;125687.94;4996439;28;20077;-84
2022/12/08 04:10:22;;;;;;;40.35;23.23;;;3.80;99.90;;;-144.05;79.15;125687.94;4996472;28;20030;-83
2022/12/08 04:12:48;;;;;;;39.70;23.58;;;3.80;99.90;;;-144.05;79.54;125687.94;4996979;28;20087;-83
2022/12/08 04:15:14;;;;;;;38.40;22.50;;;3.80;99.90;;;-144.05;79.78;125687.94;4996538;28;20030;-84
2022/12/08 04:17:40;;;;;;;42.40;23.70;;;3.90;99.90;;;-144.05;79.54;125687.94;4995945;28;20097;-84
2022/12/08 04:20:08;;;;;;;40.10;21.98;;;3.80;99.90;;;-144.05;79.54;125687.94;4997345;28;20122;-82
2022/12/08 04:22:33;;;;;;;40.03;22.05;;;3.80;99.90;;;-144.05;79.36;125687.94;4998731;28;20036;-86
2022/12/08 04:24:59;;;;;;;40.13;21.65;;;3.80;99.90;;;-144.05;79.43;125687.94;4997820;28;20054;-84
2022/12/08 04:27:25;;;;;;;36.35;21.50;;;3.80;99.90;;;-144.05;79.59;125687.94;4997551;28;20026;-84
2022/12/08 04:29:51;;;;;;;40.67;22.30;;;3.80;99.90;;;-144.05;79.45;125687.94;4998700;28;20474;-84
2022/12/08 04:32:16;;;;;;;34.95;20.10;;;3.80;99.90;;;-144.05;80.23;125687.94;4997498;28;20030;-83
2022/12/08 04:34:42;;;;;;;36.53;21.38;;;3.80;99.90;;;-144.05;79.65;125687.94;4999349;28;20386;-84
2022/12/08 04:37:08;;;;;;;35.97;20.63;;;3.80;99.90;;;-144.05;79.67;125687.94;4997396;28;20041;-84
2022/12/08 04:39:34;;;;;;;36.00;20.10;;;3.80;99.90;;;-144.05;79.12;125687.94;4996012;28;20057;-83
2022/12/08 04:42:00;;;;;;;37.08;20.95;;;3.80;99.90;;;-144.05;79.30;125687.94;4998077;28;20565;-84
2022/12/08 04:44:26;;;;;;;39.95;21.15;;;3.80;99.90;;;-144.05;79.79;125687.94;4998665;28;20054;-84
2022/12/08 04:46:52;;;;;;;36.17;19.95;;;3.80;99.90;;;-144.05;79.54;125687.94;4998710;28;20034;-84
2022/12/08 04:49:17;;;;;;;36.33;19.17;;;3.90;99.90;;;-144.05;79.34;125687.94;4998895;28;20049;-82
2022/12/08 04:51:43;;;;;;;35.38;20.23;;;3.90;99.90;;;-144.05;79.55;125687.94;4998710;28;20026;-85
2022/12/08 04:54:09;;;;;;;35.45;19.65;;;3.80;99.90;;;-144.05;79.64;125687.94;4998970;28;20101;-86
2022/12/08 04:56:36;;;;;;;37.80;20.10;;;3.80;99.90;;;-144.05;79.56;125687.94;5001801;28;20034;-85
2022/12/08 04:59:02;;;;;;;38.20;21.30;;;3.80;99.90;;;-144.05;79.49;125687.94;4999940;28;20057;-84
2022/12/08 05:01:28;;;;;;;33.88;19.88;;;3.80;99.90;;;-144.05;79.67;125687.94;5000089;28;20427;-84
2022/12/08 05:03:54;;;;;;;34.03;19.58;;;3.80;99.90;;;-144.05;79.58;125687.94;4999193;28;20029;-84
2022/12/08 05:06:20;;;;;;;37.50;20.73;;;3.80;99.90;;;-144.05;79.89;125687.94;4999910;28;20026;-84
2022/12/08 05:08:45;;;;;;;31.98;19.67;;;3.70;99.90;;;-144.05;80.11;125687.94;5002075;28;20026;-84
2022/12/08 05:11:12;;;;;;;38.63;20.55;;;3.80;99.90;;;-144.05;80.15;125687.94;5003591;28;20073;-84
2022/12/08 05:13:39;;;;;;;31.52;18.55;;;3.80;99.90;;;-144.05;80.18;125687.94;5001330;28;20030;-86
2022/12/08 05:16:10;;;;;;;32.42;18.35;;;3.80;99.90;;;-144.05;79.77;125687.94;5001532;28;20086;-85
2022/12/08 05:18:38;;;;;;;30.52;17.52;;;3.80;99.90;;;-144.05;79.56;125687.94;5004471;28;20030;-86
2022/12/08 05:21:05;;;;;;;25.92;15.20;;;3.70;99.90;;;-144.05;79.95;125687.94;5005365;28;20053;-83
2022/12/08 05:23:31;;;;;;;27.77;16.55;;;3.70;99.90;;;-144.05;79.75;125687.94;4997238;28;20050;-84
2022/12/08 05:25:58;;;;;;;29.67;16.33;;;3.70;99.90;;;-144.05;79.62;125687.94;4995786;28;20128;-83
2022/12/08 05:28:24;;;;;;;28.98;16.38;;;3.70;99.90;;;-144.05;79.65;125687.94;4995547;28;20026;-85
2022/12/08 05:30:51;;;;;;;31.23;16.40;;;3.70;99.90;;;-144.05;79.72;125687.94;5012858;28;20133;-84
2022/12/08 05:33:17;;;;;;;25.83;14.60;;;3.70;99.90;;;-144.05;80.21;125687.94;5012570;28;20034;-85
2022/12/08 05:35:43;;;;;;;27.17;15.02;;;3.70;99.90;;;-144.05;79.89;125687.94;4996673;28;20125;-84
2022/12/08 05:38:09;;;;;;;25.05;15.18;;;3.70;99.90;;;-144.05;79.50;125687.94;5013172;28;20085;-86
2022/12/08 05:40:39;;;;;;;24.02;13.65;;;3.60;99.90;;;-144.05;79.49;125687.94;5012135;28;20126;-87
2022/12/08 05:43:05;;;;;;;22.63;14.20;;;3.60;99.90;;;-144.05;79.52;125687.94;4999192;28;20034;-85
2022/12/08 05:45:34;;;;;;;25.20;14.70;;;3.50;99.90;;;-144.05;79.43;125687.94;5000158;28;20053;-85
2022/12/08 05:48:00;;;;;;;20.95;13.02;;;3.60;99.90;;;-144.05;79.85;125687.94;4999042;28;20038;-84
2022/12/08 05:50:26;;;;;;;22.63;13.23;;;3.60;99.90;;;-144.05;80.27;125687.94;5016121;28;20030;-85
2022/12/08 05:52:52;;;;;;;24.55;13.93;;;3.60;99.90;;;-144.05;80.23;125687.94;5002980;28;20039;-85
2022/12/08 05:55:18;;;;;;;24.70;14.85;;;3.50;99.90;;;-144.05;80.40;125687.94;5008394;28;20039;-85
2022/12/08 05:57:43;;;;;;;26.77;14.85;;;3.50;99.90;;;-144.05;80.49;125687.94;4995232;28;20042;-84
2022/12/08 06:00:10;;;;;;;25.55;15.38;;;3.50;99.90;;;-144.05;80.15;125687.94;4996336;28;20157;-85
2022/12/08 06:02:36;;;;;;;27.23;16.23;;;3.50;99.90;;;-144.05;80.81;125687.94;4996429;28;20030;-83
2022/12/08 06:05:02;;;;;;;23.83;14.57;;;3.50;99.90;;;-144.05;80.40;125687.94;4994693;28;20081;-83
2022/12/08 06:07:28;;;;;;;28.67;16.20;;;3.50;99.90;;;-144.05;81.03;125687.94;4996288;28;20038;-84
2022/12/08 06:09:54;;;;;;;32.63;16.58;;;3.60;99.90;;;-144.05;80.96;125687.94;4995146;28;20058;-84
2022/12/08 06:12:20;;;;;;;26.58;15.57;;;3.60;99.90;;;-144.05;81.05;125687.94;4994893;28;20477;-86
2022/12/08 06:14:45;;;;;;;26.58;15.00;;;3.60;99.90;;;-144.05;80.87;125687.94;4996218;28;20042;-84
2022/12/08 06:17:11;;;;;;;32.78;16.83;;;3.50;99.90;;;-144.05;80.90;125687.94;4995213;28;20022;-85
2022/12/08 06:19:37;;;;;;;32.30;17.33;;;3.60;99.90;;;-144.05;80.91;125687.94;4993371;28;20038;-85
2022/12/08 06:22:03;;;;;;;28.90;16.33;;;3.60;99.90;;;-144.05;80.85;125687.94;4993912;28;20034;-87
2022/12/08 06:24:29;;;;;;;30.00;18.73;;;3.60;99.90;;;-144.05;81.22;125687.94;4994350;28;20479;-83
2022/12/08 06:26:55;;;;;;;29.30;17.58;;;3.60;99.90;;;-144.05;81.27;125687.94;4996342;28;20060;-86
2022/12/08 06:29:21;;;;;;;31.58;18.27;;;3.60;99.90;;;-144.05;80.92;125687.94;4998789;28;20125;-85
2022/12/08 06:31:46;;;;;;;35.03;18.38;;;3.60;99.90;;;-144.05;81.04;125687.94;4999752;28;20122;-82
2022/12/08 06:34:12;;;;;;;33.28;18.67;;;3.60;99.90;;;-144.05;80.99;125687.94;5000047;28;20030;-85
2022/12/08 06:36:38;;;;;;;33.42;20.08;;;3.60;99.90;;;-144.05;80.62;125687.94;5015832;28;20030;-85
2022/12/08 06:39:04;;;;;;;36.10;19.58;;;3.60;99.90;;;-144.05;81.14;125687.94;5002556;28;20033;-85
2022/12/08 06:41:30;;;;;;;33.90;18.90;;;3.60;99.90;;;-144.05;80.42;125687.94;5004262;28;20033;-84
2022/12/08 06:43:56;;;;;;;33.20;19.23;;;3.70;99.90;;;-144.05;80.85;125687.94;5005130;28;20173;-84
2022/12/08 06:46:23;;;;;;;32.78;17.98;;;3.70;99.90;;;-144.05;81.34;125687.94;5005277;28;20061;-85
2022/12/08 06:48:49;;;;;;;29.02;17.17;;;3.60;99.90;;;-144.05;81.68;125687.94;5020626;28;20052;-83
2022/12/08 06:51:22;;;;;;;30.58;17.73;;;3.60;99.90;;;-144.05;81.60;125687.94;5003110;28;20053;-83
2022/12/08 06:53:48;;;;;;;29.45;17.35;;;3.60;99.90;;;-144.05;80.74;125687.94;5019888;28;20049;-85
2022/12/08 06:56:18;;;;;;;28.92;18.10;;;3.70;99.90;;;-144.05;81.05;125687.94;5002950;28;20494;-84
2022/12/08 06:58:45;;;;;;;28.77;18.02;;;3.70;99.90;;;-144.05;80.64;125687.94;4997865;28;20113;-85
2022/12/08 07:01:13;;;;;;;30.42;17.67;;;3.70;99.90;;;-144.05;80.55;125687.94;5013836;28;20076;-85
2022/12/08 07:03:42;;;;;;;28.80;16.38;;;3.60;99.90;;;-144.05;80.66;125687.94;4998354;28;20037;-84
2022/12/08 07:06:21;;;;;;;25.98;15.00;;;3.60;99.90;;;-144.05;80.95;125687.94;4999591;28;20458;-87
2022/12/08 07:08:47;;;;;;;23.10;12.63;;;3.60;99.90;;;-144.05;80.78;125687.94;5014489;28;20034;-84
2022/12/08 07:11:13;;;;;;;21.65;12.23;;;3.60;99.90;;;-144.05;80.46;125687.94;4998136;28;20053;-83
2022/12/08 07:13:39;;;;;;;19.35;12.25;;;3.50;99.90;;;-144.05;80.29;125687.94;5000117;28;20041;-84
2022/12/08 07:16:11;;;;;;;19.58;11.60;;;3.50;99.90;;;-144.05;79.50;125687.94;5001111;28;20034;-83
2022/12/08 07:18:38;;;;;;;24.15;13.23;;;3.60;99.90;;;-144.05;79.77;125687.94;5001801;28;20034;-85
2022/12/08 07:21:09;;;;;;;26.67;14.65;;;3.50;99.90;;;-144.05;79.47;125687.94;5000886;28;20078;-86
2022/12/08 07:23:36;;;;;;;21.25;12.55;;;3.50;99.90;;;-144.05;80.23;125687.94;5000355;28;20022;-84
2022/12/08 07:26:07;;;;;;;25.73;13.80;;;3.60;99.90;;;-144.05;80.66;125687.94;4998869;28;20089;-83
2022/12/08 07:28:36;;;;;;;26.40;13.65;;;3.50;99.90;;;-144.05;80.29;125687.94;4997569;28;20122;-85
2022/12/08 07:31:04;;;;;;;24.42;14.10;;;3.50;99.90;;;-144.05;80.39;125687.94;4997968;28;20129;-86
2022/12/08 07:33:32;;;;;;;23.13;13.48;;;3.50;99.90;;;-144.05;81.05;125687.94;4998653;28;20030;-86
2022/12/08 07:36:03;;;;;;;26.83;14.07;;;3.50;99.90;;;-144.05;80.99;125687.94;4999625;28;20041;-83
2022/12/08 07:38:30;;;;;;;21.88;13.18;;;3.50;99.90;;;-144.05;80.62;125687.94;4997032;28;20097;-85
2022/12/08 07:40:56;;;;;;;27.58;15.88;;;3.50;99.90;;;-144.05;80.82;125687.94;4999188;28;20023;-85
2022/12/08 07:43:23;;;;;;;26.90;14.73;;;3.50;99.90;;;-144.05;80.75;125687.94;4998367;28;20063;-85
2022/12/08 07:45:49;;;;;;;24.13;14.48;;;3.50;99.90;;;-144.05;80.54;125687.94;5001314;28;20056;-86
2022/12/08 07:48:16;;;;;;;23.92;14.02;;;3.50;99.90;;;-144.05;80.36;125687.94;4999500;28;20030;-85
2022/12/08 07:50:42;;;;;;;22.73;13.45;;;3.50;99.90;;;-144.05;81.00;125687.94;5000800;28;20030;-86
2022/12/08 07:53:09;;;;;;;25.73;14.85;;;3.50;99.90;;;-144.05;81.39;125687.94;5005409;28;20187;-83
2022/12/08 07:55:43;;;;;;;22.27;13.25;;;3.50;99.90;;;-144.05;81.21;125687.94;5013097;28;20018;-83
2022/12/08 07:58:10;;;;;;;23.77;13.20;;;3.40;99.90;;;-144.05;81.18;125687.94;4998353;28;20481;-85
2022/12/08 08:00:36;;;;;;;24.35;13.75;;;3.50;99.90;;;-144.05;81.00;125687.94;5015132;28;20030;-85
2022/12/08 08:03:02;;;;;;;23.75;14.32;;;3.50;99.90;;;-144.05;81.64;125687.94;5001859;28;20030;-86
2022/12/08 08:05:29;;;;;;;23.88;13.68;;;3.60;99.90;;;-144.05;81.31;125687.94;5001225;28;20045;-85
2022/12/08 08:07:54;;;;;;;24.70;13.65;;;3.60;99.90;;;-144.05;81.36;125687.94;5000117;28;20061;-86
2022/12/08 08:10:20;;;;;;;23.73;13.32;;;3.60;99.90;;;-144.05;81.46;125687.94;4998759;28;20386;-86
2022/12/08 08:12:46;;;;;;;23.40;13.90;;;3.50;99.90;;;-144.05;81.25;125687.94;4998369;28;20026;-87
2022/12/08 08:15:12;;;;;;;22.45;13.50;;;3.60;99.90;;;-144.05;80.79;125687.94;4998705;28;20391;-87
2022/12/08 08:17:40;;;;;;;22.77;13.35;;;3.60;99.90;;;-144.05;81.03;125687.94;4997505;28;20034;-88
2022/12/08 08:20:07;;;;;;;23.90;14.00;;;3.60;99.90;;;-144.05;81.14;125687.94;5013837;28;20040;-87
2022/12/08 08:22:35;;;;;;;22.67;13.85;;;3.60;99.90;;;-144.05;81.14;125687.94;4999461;28;20034;-86
2022/12/08 08:25:00;;;;;;;28.50;15.15;;;3.60;99.90;;;-144.05;81.32;125687.94;4996279;28;20478;-85
2022/12/08 08:27:26;;;;;;;23.95;13.93;;;3.60;99.90;;;-144.05;81.60;125687.94;4995030;28;20095;-84
2022/12/08 08:29:53;;;;;;;25.27;14.07;;;3.60;99.90;;;-144.05;81.58;125687.94;4995390;28;20038;-85
2022/12/08 08:32:19;;;;;;;26.33;15.07;;;3.60;99.90;;;-144.05;81.38;125687.94;4996576;28;20510;-86
2022/12/08 08:34:45;;;;;;;22.15;13.38;;;3.60;99.90;;;-144.05;81.19;125687.94;4996113;28;20111;-87
2022/12/08 08:37:10;;;;;;;24.85;14.70;;;3.60;99.90;;;-144.05;81.36;125687.94;4997271;28;20431;-86
2022/12/08 08:39:36;;;;;;;24.30;14.32;;;3.60;99.90;;;-144.05;81.37;125687.94;4995821;28;20022;-87
2022/12/08 08:42:02;;;;;;;24.83;14.15;;;3.70;99.90;;;-144.05;80.78;125687.94;4995436;28;20393;-86
2022/12/08 08:44:28;;;;;;;21.88;13.27;;;3.70;99.90;;;-144.05;81.15;125687.94;4995675;28;20045;-86
2022/12/08 08:46:57;;;;;;;24.42;14.18;;;3.60;99.90;;;-144.05;80.87;125687.94;4996005;28;20059;-87
2022/12/08 08:49:22;;;;;;;21.92;12.65;;;3.60;99.90;;;-144.05;80.66;125687.94;4994818;28;20096;-86
2022/12/08 08:51:49;;;;;;;20.55;11.98;;;3.60;99.90;;;-144.05;80.62;125687.94;4996990;28;20034;-86
2022/12/08 08:54:14;;;;;;;20.33;12.38;;;3.60;99.90;;;-144.05;81.01;125687.94;5011540;28;20108;-86
2022/12/08 08:56:40;;;;;;;20.73;13.00;;;3.60;99.90;;;-144.05;80.99;125687.94;4995362;28;20030;-87
2022/12/08 08:59:06;;;;;;;20.77;10.98;;;3.60;99.90;;;-144.05;81.01;125687.94;4995678;28;20117;-87
2022/12/08 09:01:33;;;;;;;19.83;11.68;;;3.60;99.90;;;-144.05;80.79;125687.94;4995803;28;20026;-87
2022/12/08 09:04:00;;;;;;;21.02;11.52;;;3.60;99.90;;;-144.05;80.54;125687.94;4994948;28;20081;-86
2022/12/08 09:06:29;;;;;;;19.95;12.13;;;3.60;99.90;;;-144.05;80.47;125687.94;4996795;28;20018;-87
2022/12/08 09:08:55;;;;;;;19.70;12.93;;;3.60;99.90;;;-144.05;80.62;125687.94;4996010;28;20030;-85
2022/12/08 09:11:22;;;;;;;19.95;13.43;;;3.60;99.90;;;-144.05;80.94;125687.94;4996584;28;20026;-84
2022/12/08 09:13:51;;;;;;;19.98;13.23;;;3.50;99.90;;;-144.05;80.57;125687.94;4994550;28;20030;-85
2022/12/08 09:16:18;;;;;;;23.30;13.63;;;3.50;99.90;;;-144.05;80.77;125687.94;4996308;28;20038;-86
2022/12/08 09:18:48;;;;;;;21.98;13.98;;;3.50;99.90;;;-144.05;80.19;125687.94;4994262;28;20122;-87
2022/12/08 09:21:21;;;;;;;22.60;13.80;;;3.50;99.90;;;-144.05;80.05;125687.94;4993477;28;20026;-87
2022/12/08 09:23:49;;;;;;;22.10;13.85;;;3.50;99.90;;;-144.05;80.43;125687.94;4992377;28;20058;-86
2022/12/08 09:26:15;;;;;;;21.60;14.90;;;3.50;99.90;;;-144.05;80.77;125687.94;4995134;28;20063;-86
2022/12/08 09:28:45;;;;;;;25.23;14.95;;;3.50;99.90;;;-144.05;80.20;125687.94;4993759;28;20399;-85
2022/12/08 09:31:13;;;;;;;20.73;14.85;;;3.50;99.90;;;-144.05;80.34;125687.94;4995439;28;20034;-84
2022/12/08 09:33:39;;;;;;;22.40;14.30;;;3.50;99.90;;;-144.05;80.24;125687.94;4994046;28;20034;-85
2022/12/08 09:36:06;;;;;;;23.98;16.13;;;3.50;99.90;;;-144.05;80.72;125687.94;4994224;28;20471;-85
2022/12/08 09:38:32;;;;;;;25.40;15.98;;;3.50;99.90;;;-144.05;81.30;125687.94;4993579;28;20536;-87
2022/12/08 09:41:01;;;;;;;24.70;15.38;;;3.40;99.90;;;-144.05;80.66;125687.94;4995309;28;20030;-86
2022/12/08 09:44:11;;;;;;;20.52;14.63;;;3.40;99.90;;;-144.05;80.51;125687.94;4994749;28;20030;-87
2022/12/08 09:46:39;;;;;;;22.95;14.27;;;3.50;99.90;;;-144.05;80.90;125687.94;4995557;28;20034;-88
2022/12/08 09:49:21;;;;;;;23.65;14.95;;;3.40;99.90;;;-144.05;80.54;125687.94;4996155;28;20034;-88
2022/12/08 09:51:47;;;;;;;21.00;13.93;;;3.50;99.90;;;-144.05;80.34;125687.94;5000329;28;20030;-88
2022/12/08 09:54:33;;;;;;;24.42;14.63;;;3.40;99.90;;;-144.05;79.77;125687.94;5006459;28;20038;-85
2022/12/08 09:57:13;;;;;;;23.10;13.65;;;3.50;99.90;;;-144.05;79.93;125687.94;4993931;28;20058;-83
2022/12/08 09:59:49;;;;;;;20.98;13.43;;;3.50;99.90;;;-144.05;79.95;125687.94;4992821;28;20042;-87
2022/12/08 10:02:28;;;;;;;18.92;12.75;;;3.50;99.90;;;-144.05;80.00;125687.94;4997974;28;20261;-86
2022/12/08 10:04:56;;;;;;;20.42;13.25;;;3.40;99.90;;;-144.05;80.20;125687.94;4999234;28;20106;-87
2022/12/08 10:07:47;;;;;;;17.63;11.90;;;3.50;99.90;;;-144.05;80.79;125687.94;4998307;28;20036;-87
2022/12/08 10:10:56;;;;;;;19.05;12.40;;;3.40;99.90;;;-144.05;81.03;125687.94;4998955;28;20084;-86
2022/12/08 10:14:10;;;;;;;17.25;12.02;;;3.40;99.90;;;-144.05;80.66;125687.94;4998119;28;20363;-87